createdAt,value
2023-04-05T00:04:21.030Z,102008.19
2023-04-05T00:11:22.967Z,102009.09
2023-04-05T00:18:25.297Z,102007.50
2023-04-05T00:25:26.882Z,102004.97
2023-04-05T00:32:28.459Z,101997.09
2023-04-05T00:39:30.265Z,101991.06
2023-04-05T00:46:34.726Z,101991.09
2023-04-05T00:53:36.287Z,101990.34
2023-04-05T01:00:38.860Z,101983.25
2023-04-05T01:07:58.714Z,101983.38
2023-04-05T01:15:00.665Z,101987.00
2023-04-05T01:22:17.366Z,101989.53
2023-04-05T01:29:37.765Z,101981.59
2023-04-05T01:36:54.649Z,101985.31
2023-04-05T01:43:56.598Z,101978.47
2023-04-05T01:50:58.127Z,101970.44
2023-04-05T01:57:59.732Z,101977.63
2023-04-05T02:05:01.952Z,101973.88
2023-04-05T02:12:03.636Z,101964.06
2023-04-05T02:19:05.894Z,101956.00
2023-04-05T02:26:07.475Z,101951.56
2023-04-05T02:33:10.392Z,101947.03
2023-04-05T02:40:13.482Z,101946.81
2023-04-05T02:47:21.189Z,101947.66
2023-04-05T02:54:27.722Z,101937.75
2023-04-05T03:01:36.285Z,101933.28
2023-04-05T03:08:46.475Z,101929.53
2023-04-05T03:15:54.044Z,101911.63
2023-04-05T03:22:56.322Z,101927.69
2023-04-05T03:30:03.529Z,101926.81
2023-04-05T03:37:08.311Z,101916.28
2023-04-05T03:44:24.518Z,101919.72
2023-04-05T03:51:27.059Z,101905.41
2023-04-05T03:58:28.649Z,101901.78
2023-04-05T04:05:38.946Z,101899.06
2023-04-05T04:12:41.980Z,101904.38
2023-04-05T04:19:44.580Z,101901.59
2023-04-05T04:26:58.283Z,101899.78
2023-04-05T04:34:21.195Z,101898.13
2023-04-05T04:41:46.953Z,101903.47
2023-04-05T04:49:07.248Z,101907.72
2023-04-05T04:56:09.629Z,101908.75
2023-04-05T05:03:11.424Z,101900.72
2023-04-05T05:10:16.034Z,101912.31
2023-04-05T05:17:17.596Z,101906.06
2023-04-05T05:24:19.515Z,101903.22
2023-04-05T05:31:21.260Z,101906.97
2023-04-05T05:38:23.515Z,101900.81
2023-04-05T05:45:25.191Z,101900.81
2023-04-05T05:52:26.830Z,101892.38
2023-04-05T05:59:28.454Z,101885.84
2023-04-05T06:06:30.609Z,101873.50
2023-04-05T06:13:32.144Z,101898.34
2023-04-05T06:20:33.757Z,101894.34
2023-04-05T06:27:35.359Z,101882.63
2023-04-05T06:34:36.951Z,101895.09
2023-04-05T06:41:38.501Z,101901.66
2023-04-05T06:48:40.341Z,101882.00
2023-04-05T06:55:42.625Z,101888.63
2023-04-05T07:02:44.269Z,101874.69
2023-04-05T07:09:46.021Z,101876.44
2023-04-05T07:16:48.643Z,101859.72
2023-04-05T07:23:53.630Z,101874.31
2023-04-05T07:30:55.244Z,101888.59
2023-04-05T07:37:56.962Z,101879.84
2023-04-05T07:44:58.618Z,101886.91
2023-04-05T07:52:00.374Z,101876.09
2023-04-05T07:59:01.964Z,101871.31
2023-04-05T08:06:13.335Z,101871.09
2023-04-05T08:13:14.965Z,101867.63
2023-04-05T08:20:16.608Z,101862.78
2023-04-05T08:27:18.686Z,101856.41
2023-04-05T08:34:20.360Z,101849.44
2023-04-05T08:41:23.424Z,101855.28
2023-04-05T08:48:25.740Z,101854.22
2023-04-05T08:55:27.286Z,101857.59
2023-04-05T09:02:28.904Z,101851.56
2023-04-05T09:09:32.519Z,101852.53
2023-04-05T09:16:37.146Z,101842.63
2023-04-05T09:23:38.856Z,101841.06
2023-04-05T09:30:45.387Z,101840.50
2023-04-05T09:37:57.394Z,101832.00
2023-04-05T09:45:02.200Z,101831.91
2023-04-05T09:52:23.954Z,101824.84
2023-04-05T09:59:25.881Z,101824.25
2023-04-05T10:06:38.703Z,101815.88
2023-04-05T10:13:40.563Z,101809.97
2023-04-05T10:20:42.629Z,101805.84
2023-04-05T10:27:48.524Z,101810.31
2023-04-05T10:34:56.492Z,101801.50
2023-04-05T10:42:02.979Z,101809.03
2023-04-05T10:49:28.006Z,101800.28
2023-04-05T10:56:29.615Z,101810.66
2023-04-05T11:03:50.922Z,101814.06
2023-04-05T11:10:52.569Z,101810.84
2023-04-05T11:18:09.387Z,101809.97
2023-04-05T11:25:11.050Z,101800.13
2023-04-05T11:32:13.489Z,101788.72
2023-04-05T11:39:18.044Z,101786.41
2023-04-05T11:46:19.726Z,101789.75
2023-04-05T11:53:21.363Z,101791.91
2023-04-05T12:00:22.991Z,101787.03
2023-04-05T12:07:36.679Z,101802.22
2023-04-05T12:14:38.857Z,101797.00
2023-04-05T12:21:40.401Z,101788.84
2023-04-05T12:28:57.822Z,101786.38
2023-04-05T12:36:04.469Z,101773.28
2023-04-05T12:43:07.231Z,101766.69
2023-04-05T12:50:16.014Z,101767.00
2023-04-05T12:57:17.564Z,101757.03
2023-04-05T13:04:19.251Z,101764.31
2023-04-05T13:11:20.824Z,101752.81
2023-04-05T13:18:22.430Z,101734.78
2023-04-05T13:25:24.042Z,101737.31
2023-04-05T13:32:25.646Z,101726.06
2023-04-05T13:39:27.160Z,101708.34
2023-04-05T13:46:28.784Z,101710.13
2023-04-05T13:53:30.410Z,101696.47
2023-04-05T14:00:32.055Z,101690.25
2023-04-05T14:07:33.612Z,101675.38
2023-04-05T14:14:35.161Z,101675.91
2023-04-05T14:21:37.226Z,101657.56
2023-04-05T14:28:38.848Z,101641.31
2023-04-05T14:35:40.647Z,101643.19
2023-04-05T14:42:49.400Z,101634.25
2023-04-05T14:49:51.923Z,101622.72
2023-04-05T14:56:53.521Z,101622.00
2023-04-05T15:03:55.200Z,101626.97
2023-04-05T15:10:56.798Z,101626.72
2023-04-05T15:17:58.434Z,101649.94
2023-04-05T15:25:00.191Z,101643.78
2023-04-05T15:32:02.770Z,101630.66
2023-04-05T15:39:05.189Z,101638.84
2023-04-05T15:46:07.017Z,101639.22
2023-04-05T15:53:08.658Z,101634.69
2023-04-05T16:00:11.001Z,101634.81
2023-04-05T16:07:12.788Z,101616.84
2023-04-05T16:14:14.617Z,101625.63
2023-04-05T16:21:16.856Z,101615.34
2023-04-05T16:28:18.405Z,101619.16
2023-04-05T16:35:20.467Z,101613.09
2023-04-05T16:42:22.035Z,101622.09
2023-04-05T16:49:23.658Z,101617.47
2023-04-05T16:56:25.270Z,101614.56
2023-04-05T17:03:27.313Z,101615.53
2023-04-05T17:10:29.108Z,101613.09
2023-04-05T17:17:31.075Z,101622.44
2023-04-05T17:24:36.257Z,101628.38
2023-04-05T17:31:38.106Z,101631.63
2023-04-05T17:38:39.765Z,101631.13
2023-04-05T17:45:41.385Z,101632.44
2023-04-05T17:52:43.048Z,101632.34
2023-04-05T17:59:44.771Z,101640.84
2023-04-05T18:06:47.206Z,101646.69
2023-04-05T18:13:48.826Z,101655.28
2023-04-05T18:20:53.936Z,101659.00
2023-04-05T18:27:55.935Z,101663.16
2023-04-05T18:34:57.677Z,101662.47
2023-04-05T18:41:59.478Z,101671.78
2023-04-05T18:49:01.120Z,101679.66
2023-04-05T18:56:02.709Z,101680.53
2023-04-05T19:03:04.369Z,101685.00
2023-04-05T19:10:06.765Z,101689.44
2023-04-05T19:17:09.353Z,101689.81
2023-04-05T19:24:13.944Z,101682.91
2023-04-05T19:31:16.292Z,101695.84
2023-04-05T19:38:18.166Z,101695.47
2023-04-05T19:45:26.832Z,101692.41
2023-04-05T19:52:34.539Z,101682.28
2023-04-05T19:59:36.184Z,101690.19
2023-04-05T20:06:37.926Z,101690.84
2023-04-05T20:13:50.543Z,101683.91
2023-04-05T20:20:53.692Z,101693.19
2023-04-05T20:27:55.413Z,101680.03
2023-04-05T20:34:56.972Z,101679.16
2023-04-05T20:41:58.676Z,101679.41
2023-04-05T20:49:00.247Z,101676.94
2023-04-05T20:56:05.307Z,101671.34
2023-04-05T21:03:07.544Z,101676.84
2023-04-05T21:10:09.688Z,101667.47
2023-04-05T21:17:11.396Z,101668.06
2023-04-05T21:24:12.989Z,101667.72
2023-04-05T21:31:14.530Z,101670.13
2023-04-05T21:38:16.500Z,101660.72
2023-04-05T21:45:18.078Z,101662.84
2023-04-05T21:52:19.673Z,101657.25
2023-04-05T21:59:21.415Z,101662.63
2023-04-05T22:06:23.060Z,101656.66
2023-04-05T22:13:24.612Z,101652.34
2023-04-05T22:20:26.428Z,101651.91
2023-04-05T22:27:29.314Z,101653.97
2023-04-05T22:34:30.856Z,101653.44
2023-04-05T22:41:32.509Z,101661.47
2023-04-05T22:48:34.159Z,101660.41
2023-04-05T22:55:37.948Z,101665.22
2023-04-05T23:02:39.597Z,101659.13
2023-04-05T23:09:41.210Z,101660.75
2023-04-05T23:16:42.777Z,101657.56
2023-04-05T23:23:44.424Z,101662.63
2023-04-05T23:30:46.092Z,101661.69
2023-04-05T23:37:47.738Z,101658.91
2023-04-05T23:44:49.283Z,101658.34
2023-04-05T23:51:51.212Z,101656.13
2023-04-05T23:58:52.778Z,101655.44
